createdAt,value
2022-12-06T00:01:40.598Z,25.45
2022-12-06T00:04:42.312Z,24.10
2022-12-06T00:07:43.997Z,24.85
2022-12-06T00:10:45.760Z,25.13
2022-12-06T00:13:48.301Z,22.90
2022-12-06T00:16:50.144Z,25.00
2022-12-06T00:19:51.798Z,25.60
2022-12-06T00:22:53.372Z,29.23
2022-12-06T00:25:54.977Z,29.08
2022-12-06T00:28:59.323Z,28.00
2022-12-06T00:32:01.030Z,26.30
2022-12-06T00:35:02.718Z,25.55
2022-12-06T00:38:04.657Z,27.85
2022-12-06T00:41:08.711Z,29.05
2022-12-06T00:44:11.116Z,27.92
2022-12-06T00:47:12.749Z,27.48
2022-12-06T00:50:14.382Z,23.77
2022-12-06T00:53:16.436Z,24.42
2022-12-06T00:56:18.849Z,25.30
2022-12-06T00:59:20.437Z,26.02
2022-12-06T01:02:22.039Z,25.42
2022-12-06T01:05:24.245Z,26.63
2022-12-06T01:08:25.832Z,24.83
2022-12-06T01:11:28.615Z,22.33
2022-12-06T01:14:30.170Z,25.13
2022-12-06T01:17:31.707Z,28.02
2022-12-06T01:20:34.531Z,26.85
2022-12-06T01:23:36.553Z,27.63
2022-12-06T01:26:38.162Z,28.15
2022-12-06T01:29:39.715Z,27.45
2022-12-06T01:32:41.259Z,25.83
2022-12-06T01:35:43.203Z,25.50
2022-12-06T01:38:48.094Z,24.95
2022-12-06T01:41:49.681Z,25.50
2022-12-06T01:44:59.255Z,27.35
2022-12-06T01:48:01.279Z,27.17
2022-12-06T01:51:05.214Z,28.90
2022-12-06T01:54:10.955Z,26.38
2022-12-06T01:57:15.115Z,25.73
2022-12-06T02:00:17.106Z,27.75
2022-12-06T02:03:29.027Z,28.25
2022-12-06T02:06:32.060Z,25.38
2022-12-06T02:09:34.616Z,29.17
2022-12-06T02:12:36.633Z,27.17
2022-12-06T02:15:55.591Z,33.50
2022-12-06T02:19:25.004Z,29.60
2022-12-06T02:22:50.155Z,32.05
2022-12-06T02:26:03.765Z,26.88
2022-12-06T02:29:59.683Z,28.25
2022-12-06T02:33:19.802Z,29.75
2022-12-06T02:36:40.180Z,33.17
2022-12-06T02:40:13.702Z,32.45
2022-12-06T02:43:20.047Z,31.48
2022-12-06T02:46:23.261Z,34.03
2022-12-06T02:49:27.992Z,30.50
2022-12-06T02:52:30.665Z,28.38
2022-12-06T02:55:33.774Z,29.50
2022-12-06T02:58:37.081Z,30.35
2022-12-06T03:01:45.353Z,31.50
2022-12-06T03:04:55.705Z,26.90
2022-12-06T03:07:59.033Z,33.20
2022-12-06T03:11:02.470Z,28.00
2022-12-06T03:14:13.380Z,28.75
2022-12-06T03:17:28.980Z,29.33
2022-12-06T03:20:42.450Z,24.95
2022-12-06T03:23:47.959Z,28.33
2022-12-06T03:26:51.182Z,27.17
2022-12-06T03:29:57.933Z,31.52
2022-12-06T03:33:00.694Z,29.52
2022-12-06T03:36:02.878Z,28.10
2022-12-06T03:39:07.629Z,32.35
2022-12-06T03:42:09.985Z,32.03
2022-12-06T03:45:13.210Z,29.67
2022-12-06T03:48:38.906Z,27.55
2022-12-06T03:51:42.247Z,33.67
2022-12-06T03:54:43.926Z,24.58
2022-12-06T03:57:45.464Z,30.67
2022-12-06T04:00:47.900Z,28.75
2022-12-06T04:03:49.807Z,28.77
2022-12-06T04:06:52.577Z,28.80
2022-12-06T04:10:03.183Z,29.13
2022-12-06T04:13:06.114Z,28.27
2022-12-06T04:16:28.389Z,32.95
2022-12-06T04:19:30.446Z,33.28
2022-12-06T04:22:50.586Z,34.70
2022-12-06T04:25:52.338Z,31.73
2022-12-06T04:29:13.313Z,30.13
2022-12-06T04:32:33.753Z,29.98
2022-12-06T04:35:54.226Z,31.35
2022-12-06T04:38:55.744Z,30.45
2022-12-06T04:42:16.620Z,32.15
2022-12-06T04:48:19.685Z,32.28
2022-12-06T04:51:21.559Z,30.52
2022-12-06T04:54:24.272Z,31.33
2022-12-06T04:57:25.831Z,29.98
2022-12-06T05:00:27.385Z,33.72
2022-12-06T05:03:29.391Z,31.00
2022-12-06T05:06:30.950Z,29.77
2022-12-06T05:09:32.599Z,29.60
2022-12-06T05:12:34.225Z,31.35
2022-12-06T05:15:35.806Z,30.55
2022-12-06T05:18:37.733Z,25.85
2022-12-06T05:21:39.315Z,31.90
2022-12-06T05:24:41.018Z,31.00
2022-12-06T05:27:43.189Z,33.33
2022-12-06T05:30:44.724Z,31.25
2022-12-06T05:33:46.398Z,31.35
2022-12-06T05:36:48.039Z,35.55
2022-12-06T05:39:49.603Z,31.45
2022-12-06T05:42:51.422Z,33.08
2022-12-06T05:45:53.771Z,31.50
2022-12-06T05:48:55.334Z,29.65
2022-12-06T05:52:01.179Z,30.67
2022-12-06T05:55:05.488Z,32.55
2022-12-06T05:58:07.111Z,33.28
2022-12-06T06:01:09.400Z,33.08
2022-12-06T06:04:10.959Z,31.27
2022-12-06T06:07:12.510Z,32.53
2022-12-06T06:10:14.414Z,31.10
2022-12-06T06:13:16.015Z,29.73
2022-12-06T06:16:17.571Z,30.13
2022-12-06T06:19:19.308Z,26.55
2022-12-06T06:22:22.983Z,29.17
2022-12-06T06:25:24.559Z,27.52
2022-12-06T06:28:26.117Z,34.28
2022-12-06T06:31:27.664Z,25.20
2022-12-06T06:34:29.442Z,33.85
2022-12-06T06:37:31.438Z,34.72
2022-12-06T06:40:34.134Z,32.38
2022-12-06T06:43:35.701Z,30.55
2022-12-06T06:46:37.271Z,30.38
2022-12-06T06:49:38.857Z,31.02
2022-12-06T06:52:40.479Z,29.38
2022-12-06T06:55:44.264Z,30.38
2022-12-06T06:58:45.908Z,33.17
2022-12-06T07:01:47.504Z,28.55
2022-12-06T07:04:49.799Z,30.33
2022-12-06T07:07:51.555Z,35.22
2022-12-06T07:10:54.125Z,30.10
2022-12-06T07:13:56.408Z,35.63
2022-12-06T07:16:57.994Z,36.67
2022-12-06T07:19:59.896Z,39.17
2022-12-06T07:23:01.616Z,38.08
2022-12-06T07:26:14.860Z,36.53
2022-12-06T07:29:16.386Z,33.72
2022-12-06T07:32:18.166Z,38.15
2022-12-06T07:35:23.484Z,40.47
2022-12-06T07:38:25.086Z,37.17
2022-12-06T07:41:55.470Z,36.15
2022-12-06T07:45:03.030Z,33.88
2022-12-06T07:48:05.769Z,32.05
2022-12-06T07:51:10.370Z,34.97
2022-12-06T07:54:12.032Z,29.70
2022-12-06T07:57:13.765Z,27.45
2022-12-06T08:00:16.469Z,30.48
2022-12-06T08:03:17.989Z,26.08
2022-12-06T08:06:19.496Z,26.35
2022-12-06T08:09:21.098Z,29.63
2022-12-06T08:12:22.727Z,25.58
2022-12-06T08:15:24.335Z,26.75
2022-12-06T08:18:26.037Z,24.33
2022-12-06T08:21:27.690Z,23.92
2022-12-06T08:24:29.512Z,21.55
2022-12-06T08:27:31.241Z,21.65
2022-12-06T08:30:33.170Z,23.00
2022-12-06T08:33:35.457Z,21.60
2022-12-06T08:36:39.051Z,18.00
2022-12-06T08:39:40.624Z,18.73
2022-12-06T08:42:43.335Z,19.00
2022-12-06T08:45:49.518Z,15.20
2022-12-06T08:48:51.773Z,15.55
2022-12-06T08:51:53.548Z,18.17
2022-12-06T08:54:55.105Z,17.65
2022-12-06T08:57:56.712Z,17.80
2022-12-06T09:00:58.278Z,16.17
2022-12-06T09:04:01.416Z,16.83
2022-12-06T09:07:07.425Z,14.05
2022-12-06T09:10:11.887Z,13.88
2022-12-06T09:13:13.427Z,15.75
2022-12-06T09:16:18.738Z,14.77
2022-12-06T09:19:20.681Z,14.27
2022-12-06T09:22:22.229Z,13.65
2022-12-06T09:25:23.744Z,13.63
2022-12-06T09:28:25.358Z,12.70
2022-12-06T09:31:27.067Z,14.38
2022-12-06T09:34:28.654Z,13.15
2022-12-06T09:37:30.223Z,12.48
2022-12-06T09:40:58.086Z,12.13
2022-12-06T09:44:18.911Z,14.05
2022-12-06T09:51:02.049Z,13.18
2022-12-06T09:54:38.771Z,12.80
2022-12-06T09:58:06.349Z,11.10
2022-12-06T10:01:29.386Z,12.40
2022-12-06T10:05:04.545Z,11.73
2022-12-06T10:08:30.575Z,13.30
2022-12-06T10:11:42.688Z,12.95
2022-12-06T10:15:20.414Z,13.52
2022-12-06T10:18:29.663Z,11.27
2022-12-06T10:21:52.457Z,12.93
2022-12-06T10:25:08.744Z,12.02
2022-12-06T10:28:20.025Z,10.65
2022-12-06T10:31:34.212Z,11.00
2022-12-06T10:35:16.395Z,10.35
2022-12-06T10:38:51.722Z,10.82
2022-12-06T10:42:04.279Z,10.52
2022-12-06T10:45:33.660Z,10.35
2022-12-06T10:48:38.138Z,10.55
2022-12-06T10:51:59.586Z,10.65
2022-12-06T10:55:10.207Z,10.48
2022-12-06T10:58:31.578Z,9.50
2022-12-06T11:01:39.284Z,10.40
2022-12-06T11:04:43.888Z,11.95
2022-12-06T11:07:48.926Z,11.85
2022-12-06T11:10:51.906Z,9.52
2022-12-06T11:14:03.319Z,9.55
2022-12-06T11:17:14.325Z,10.32
2022-12-06T11:20:28.968Z,8.57
2022-12-06T11:23:53.432Z,7.75
2022-12-06T11:26:59.295Z,7.88
2022-12-06T11:30:04.064Z,9.23
2022-12-06T11:33:05.935Z,9.27
2022-12-06T11:36:08.245Z,9.32
2022-12-06T11:39:14.792Z,10.32
2022-12-06T11:42:24.325Z,9.60
2022-12-06T11:45:29.890Z,9.02
2022-12-06T11:48:34.153Z,9.82
2022-12-06T11:51:35.737Z,8.60
2022-12-06T11:54:43.327Z,8.70
2022-12-06T11:57:51.785Z,8.93
2022-12-06T12:01:03.904Z,7.85
2022-12-06T12:04:30.262Z,6.85
2022-12-06T12:07:34.612Z,7.63
2022-12-06T12:10:44.300Z,8.85
2022-12-06T12:13:56.423Z,6.88
2022-12-06T12:17:03.291Z,7.43
2022-12-06T12:20:08.653Z,6.78
2022-12-06T12:23:31.421Z,6.85
2022-12-06T12:26:39.672Z,6.57
2022-12-06T12:29:41.218Z,6.50
2022-12-06T12:32:43.958Z,7.15
2022-12-06T12:35:54.314Z,7.60
2022-12-06T12:39:01.006Z,6.63
2022-12-06T12:42:03.217Z,7.88
2022-12-06T12:45:06.004Z,8.20
2022-12-06T12:48:25.622Z,8.55
2022-12-06T12:51:37.729Z,8.45
2022-12-06T12:54:39.418Z,9.93
2022-12-06T12:57:49.334Z,10.07
2022-12-06T13:00:51.925Z,8.83
2022-12-06T13:04:05.261Z,9.65
2022-12-06T13:07:46.603Z,10.20
2022-12-06T13:10:58.459Z,10.40
2022-12-06T13:14:01.794Z,11.85
2022-12-06T13:17:09.156Z,12.73
2022-12-06T13:20:24.827Z,12.32
2022-12-06T13:23:34.282Z,12.63
2022-12-06T13:26:53.043Z,13.25
2022-12-06T13:30:03.622Z,10.38
2022-12-06T13:36:31.820Z,7.90
2022-12-06T13:39:37.311Z,7.10
2022-12-06T13:42:38.869Z,6.90
2022-12-06T13:45:40.606Z,6.90
2022-12-06T13:48:55.734Z,6.80
2022-12-06T13:51:57.293Z,7.95
2022-12-06T13:55:14.397Z,7.82
2022-12-06T13:58:18.796Z,8.33
2022-12-06T14:01:40.354Z,8.43
2022-12-06T14:04:42.522Z,8.27
2022-12-06T14:07:44.134Z,8.40
2022-12-06T14:10:46.050Z,10.77
2022-12-06T14:13:55.344Z,8.70
2022-12-06T14:17:01.855Z,8.80
2022-12-06T14:20:24.134Z,9.18
2022-12-06T14:23:39.998Z,8.52
2022-12-06T14:26:47.611Z,11.82
2022-12-06T14:30:25.664Z,12.98
2022-12-06T14:33:27.888Z,10.70
2022-12-06T14:36:39.925Z,11.23
2022-12-06T14:39:50.133Z,10.05
2022-12-06T14:43:02.975Z,11.40
2022-12-06T14:46:11.759Z,10.88
2022-12-06T14:49:38.092Z,9.95
2022-12-06T14:52:58.266Z,8.02
2022-12-06T14:56:05.745Z,12.45
2022-12-06T14:59:12.470Z,9.00
2022-12-06T15:02:25.713Z,9.27
2022-12-06T15:05:36.521Z,11.30
2022-12-06T15:12:40.416Z,10.02
2022-12-06T15:15:44.993Z,12.10
2022-12-06T15:19:00.113Z,9.02
2022-12-06T15:22:02.859Z,10.88
2022-12-06T15:25:04.769Z,12.75
2022-12-06T15:28:06.282Z,12.00
2022-12-06T15:31:17.110Z,11.55
2022-12-06T15:34:22.135Z,13.13
2022-12-06T15:37:38.619Z,14.65
2022-12-06T15:40:51.691Z,12.13
2022-12-06T15:43:54.131Z,12.20
2022-12-06T15:46:55.825Z,10.13
2022-12-06T15:49:58.246Z,12.27
2022-12-06T15:53:01.931Z,13.25
2022-12-06T15:56:03.612Z,13.18
2022-12-06T15:59:05.265Z,11.63
2022-12-06T16:02:15.170Z,14.93
2022-12-06T16:05:17.516Z,14.98
2022-12-06T16:08:26.626Z,13.77
2022-12-06T16:11:28.220Z,15.00
2022-12-06T16:14:29.788Z,16.83
2022-12-06T16:17:31.304Z,15.80
2022-12-06T16:20:33.185Z,15.75
2022-12-06T16:27:14.790Z,12.27
2022-12-06T16:30:16.754Z,10.98
2022-12-06T16:33:21.130Z,11.57
2022-12-06T16:36:56.087Z,13.30
2022-12-06T16:39:57.631Z,13.65
2022-12-06T16:42:59.173Z,14.73
2022-12-06T16:46:45.484Z,12.32
2022-12-06T16:49:48.881Z,11.30
2022-12-06T16:52:52.109Z,12.43
2022-12-06T16:55:53.866Z,13.82
2022-12-06T16:58:58.375Z,11.80
2022-12-06T17:02:13.296Z,10.95
2022-12-06T17:05:21.108Z,11.52
2022-12-06T17:08:23.134Z,11.05
2022-12-06T17:11:52.571Z,11.18
2022-12-06T17:14:56.579Z,11.00
2022-12-06T17:17:58.461Z,10.63
2022-12-06T17:21:01.538Z,10.57
2022-12-06T17:24:03.531Z,10.88
2022-12-06T17:27:06.829Z,12.02
2022-12-06T17:30:17.517Z,10.38
2022-12-06T17:33:21.858Z,11.73
2022-12-06T17:36:25.307Z,11.27
2022-12-06T17:39:27.231Z,11.77
2022-12-06T17:42:47.479Z,11.35
2022-12-06T17:45:52.210Z,7.95
2022-12-06T17:48:54.941Z,12.75
2022-12-06T17:51:57.188Z,11.20
2022-12-06T17:55:01.034Z,10.57
2022-12-06T17:58:52.616Z,10.93
2022-12-06T18:02:21.114Z,11.68
2022-12-06T18:09:18.446Z,10.80
2022-12-06T18:12:44.929Z,11.10
2022-12-06T18:15:56.151Z,11.13
2022-12-06T18:19:09.364Z,11.32
2022-12-06T18:22:11.119Z,10.77
2022-12-06T18:25:24.373Z,11.15
2022-12-06T18:28:40.229Z,11.57
2022-12-06T18:31:58.132Z,12.00
2022-12-06T18:38:17.684Z,11.40
2022-12-06T18:41:25.242Z,9.93
2022-12-06T18:44:34.470Z,9.43
2022-12-06T18:47:41.835Z,12.65
2022-12-06T18:54:14.758Z,11.18
2022-12-06T18:57:32.205Z,11.68
2022-12-06T19:00:44.881Z,11.15
2022-12-06T19:04:06.322Z,10.75
2022-12-06T19:07:21.878Z,10.77
2022-12-06T19:10:44.109Z,10.65
2022-12-06T19:14:14.334Z,10.82
2022-12-06T19:21:02.004Z,11.30
2022-12-06T19:24:04.397Z,12.05
2022-12-06T19:27:08.463Z,11.43
2022-12-06T19:30:10.850Z,12.73
2022-12-06T19:33:15.716Z,12.68
2022-12-06T19:36:21.708Z,12.32
2022-12-06T19:39:30.668Z,13.35
2022-12-06T19:42:51.328Z,12.85
2022-12-06T19:45:53.094Z,13.10
2022-12-06T19:49:07.301Z,12.75
2022-12-06T19:52:09.014Z,12.90
2022-12-06T19:55:13.442Z,12.27
2022-12-06T19:58:20.054Z,14.13
2022-12-06T20:01:32.522Z,14.10
2022-12-06T20:04:38.310Z,13.75
2022-12-06T20:07:40.543Z,13.50
2022-12-06T20:10:45.372Z,14.95
2022-12-06T20:14:21.473Z,13.05
2022-12-06T20:17:33.292Z,14.27
2022-12-06T20:20:52.372Z,12.90
2022-12-06T20:24:03.597Z,13.38
2022-12-06T20:31:20.645Z,14.18
2022-12-06T20:34:25.599Z,14.63
2022-12-06T20:37:27.351Z,14.43
2022-12-06T20:40:31.533Z,14.18
2022-12-06T20:43:37.942Z,13.40
2022-12-06T20:46:39.854Z,14.10
2022-12-06T20:49:43.346Z,15.35
2022-12-06T20:52:45.296Z,13.38
2022-12-06T20:55:46.867Z,14.30
2022-12-06T20:58:51.783Z,15.70
2022-12-06T21:01:53.339Z,15.95
2022-12-06T21:04:54.906Z,15.82
2022-12-06T21:07:57.910Z,17.80
2022-12-06T21:11:22.038Z,16.85
2022-12-06T21:14:22.053Z,17.45
2022-12-06T21:17:24.639Z,17.48
2022-12-06T21:20:26.313Z,16.48
2022-12-06T21:23:28.698Z,16.85
2022-12-06T21:26:30.993Z,17.73
2022-12-06T21:29:32.547Z,17.25
2022-12-06T21:32:35.706Z,17.85
2022-12-06T21:35:37.481Z,18.90
2022-12-06T21:38:39.195Z,18.90
2022-12-06T21:41:41.114Z,17.63
2022-12-06T21:44:44.567Z,17.52
2022-12-06T21:47:46.214Z,18.25
2022-12-06T21:50:47.814Z,19.83
2022-12-06T21:53:49.764Z,18.70
2022-12-06T21:56:51.272Z,20.85
2022-12-06T21:59:52.860Z,20.95
2022-12-06T22:02:54.505Z,18.30
2022-12-06T22:05:56.053Z,20.95
2022-12-06T22:09:00.705Z,19.83
2022-12-06T22:12:02.495Z,20.10
2022-12-06T22:15:04.486Z,20.33
2022-12-06T22:18:06.104Z,20.77
2022-12-06T22:21:12.429Z,22.25
2022-12-06T22:24:14.599Z,20.83
2022-12-06T22:27:16.099Z,22.45
2022-12-06T22:30:18.001Z,21.73
2022-12-06T22:33:20.419Z,25.52
2022-12-06T22:36:22.289Z,22.08
2022-12-06T22:39:23.810Z,22.27
2022-12-06T22:42:25.318Z,23.30
2022-12-06T22:45:30.137Z,26.00
2022-12-06T22:48:31.843Z,22.50
2022-12-06T22:51:36.526Z,26.40
2022-12-06T22:54:38.135Z,23.63
2022-12-06T22:57:39.675Z,23.60
2022-12-06T23:00:41.219Z,24.77
2022-12-06T23:03:46.072Z,25.00
2022-12-06T23:06:47.678Z,25.38
2022-12-06T23:09:50.185Z,22.73
2022-12-06T23:12:54.010Z,23.25
2022-12-06T23:15:57.457Z,25.83
2022-12-06T23:19:01.314Z,25.85
2022-12-06T23:22:02.821Z,23.65
2022-12-06T23:25:04.923Z,26.55
2022-12-06T23:28:06.434Z,26.15
2022-12-06T23:31:14.894Z,25.67
2022-12-06T23:34:20.406Z,24.00
2022-12-06T23:37:21.943Z,24.98
2022-12-06T23:40:23.595Z,25.05
2022-12-06T23:43:25.141Z,24.45
2022-12-06T23:46:32.249Z,23.42
2022-12-06T23:49:33.917Z,25.67
2022-12-06T23:52:35.848Z,25.55
2022-12-06T23:55:37.418Z,23.88
2022-12-06T23:58:39.946Z,23.67
